createdAt,value
2023-01-02T00:00:21.279Z,33.10
2023-01-02T00:02:47.912Z,35.38
2023-01-02T00:05:14.605Z,37.28
2023-01-02T00:07:40.966Z,38.08
2023-01-02T00:10:07.685Z,40.60
2023-01-02T00:12:34.034Z,40.45
2023-01-02T00:15:00.494Z,40.45
2023-01-02T00:17:26.813Z,39.95
2023-01-02T00:19:53.180Z,42.08
2023-01-02T00:22:19.624Z,43.22
2023-01-02T00:24:45.972Z,41.72
2023-01-02T00:27:12.308Z,41.58
2023-01-02T00:29:38.607Z,41.10
2023-01-02T00:32:05.255Z,38.60
2023-01-02T00:34:31.716Z,37.17
2023-01-02T00:36:58.107Z,39.42
2023-01-02T00:39:24.604Z,39.63
2023-01-02T00:41:51.004Z,37.90
2023-01-02T00:44:17.395Z,39.80
2023-01-02T00:46:43.922Z,40.05
2023-01-02T00:49:10.358Z,42.80
2023-01-02T00:51:36.684Z,47.67
2023-01-02T00:54:03.104Z,45.75
2023-01-02T00:56:29.451Z,54.13
2023-01-02T00:58:55.808Z,56.30
2023-01-02T01:01:22.216Z,74.90
2023-01-02T01:03:48.639Z,88.22
2023-01-02T01:06:15.149Z,77.72
2023-01-02T01:08:41.504Z,99.50
2023-01-02T01:11:10.553Z,119.53
2023-01-02T01:13:37.045Z,107.90
2023-01-02T01:16:08.486Z,117.00
2023-01-02T01:18:35.481Z,113.88
2023-01-02T01:21:13.076Z,133.73
2023-01-02T01:23:39.636Z,95.13
2023-01-02T01:26:12.783Z,90.00
2023-01-02T01:28:39.290Z,65.60
2023-01-02T01:31:08.375Z,66.70
2023-01-02T01:33:34.895Z,65.15
2023-01-02T01:36:05.967Z,53.13
2023-01-02T01:38:32.848Z,55.65
2023-01-02T01:40:59.667Z,48.92
2023-01-02T01:43:35.241Z,48.17
2023-01-02T01:46:02.374Z,43.53
2023-01-02T01:48:29.468Z,43.30
2023-01-02T01:50:55.893Z,40.03
2023-01-02T01:53:23.653Z,44.58
2023-01-02T01:55:58.725Z,46.58
2023-01-02T01:58:33.301Z,46.13
2023-01-02T02:01:00.242Z,46.28
2023-01-02T02:03:30.555Z,38.08
2023-01-02T02:05:58.372Z,43.45
2023-01-02T02:08:49.541Z,49.85
2023-01-02T02:11:17.145Z,50.17
2023-01-02T02:13:43.651Z,63.53
2023-01-02T02:16:25.068Z,58.25
2023-01-02T02:19:40.471Z,64.65
2023-01-02T02:22:18.988Z,57.67
2023-01-02T02:25:17.796Z,59.15
2023-01-02T02:28:15.033Z,61.60
2023-01-02T02:30:48.783Z,63.80
2023-01-02T02:33:38.774Z,66.28
2023-01-02T02:36:22.304Z,100.07
2023-01-02T02:39:06.194Z,67.15
2023-01-02T02:41:34.225Z,65.85
2023-01-02T02:44:31.495Z,101.32
2023-01-02T02:47:46.126Z,85.63
2023-01-02T02:50:27.160Z,102.20
2023-01-02T02:53:21.013Z,120.70
2023-01-02T02:55:52.122Z,110.47
2023-01-02T02:58:20.411Z,137.93
2023-01-02T03:00:47.171Z,185.57
2023-01-02T03:03:15.600Z,224.85
2023-01-02T03:05:46.735Z,270.33
2023-01-02T03:09:00.104Z,284.40
2023-01-02T03:11:52.142Z,229.48
2023-01-02T03:14:28.378Z,301.83
2023-01-02T03:17:02.530Z,380.00
2023-01-02T03:19:52.307Z,418.95
2023-01-02T03:22:23.035Z,448.67
2023-01-02T03:24:53.966Z,533.35
2023-01-02T03:27:28.060Z,535.90
2023-01-02T03:30:01.656Z,566.03
2023-01-02T03:32:32.381Z,626.10
2023-01-02T03:35:03.590Z,626.28
2023-01-02T03:37:33.971Z,712.55
2023-01-02T03:40:07.805Z,705.20
2023-01-02T03:42:42.062Z,703.78
2023-01-02T03:45:15.811Z,652.85
2023-01-02T03:48:02.380Z,680.03
2023-01-02T03:50:36.380Z,643.65
2023-01-02T03:53:02.771Z,666.67
2023-01-02T03:55:34.553Z,726.90
2023-01-02T03:58:27.305Z,724.30
2023-01-02T04:01:05.022Z,655.25
2023-01-02T04:03:36.240Z,727.90
2023-01-02T04:06:13.939Z,743.25
2023-01-02T04:08:44.607Z,734.70
2023-01-02T04:11:14.635Z,650.53
2023-01-02T04:13:46.837Z,672.22
2023-01-02T04:16:18.704Z,655.45
2023-01-02T04:18:54.932Z,620.25
2023-01-02T04:21:25.938Z,561.72
2023-01-02T04:23:59.331Z,582.78
2023-01-02T04:26:37.084Z,529.17
2023-01-02T04:29:03.785Z,480.23
2023-01-02T04:31:43.727Z,487.58
2023-01-02T04:34:15.268Z,382.50
2023-01-02T04:36:41.907Z,426.52
2023-01-02T04:39:09.039Z,401.13
2023-01-02T04:41:37.787Z,358.05
2023-01-02T04:44:04.578Z,318.17
2023-01-02T04:46:31.080Z,292.92
2023-01-02T04:48:57.486Z,210.73
2023-01-02T04:51:24.604Z,224.35
2023-01-02T04:53:52.728Z,211.50
2023-01-02T04:56:19.983Z,176.52
2023-01-02T04:58:46.988Z,173.27
2023-01-02T05:01:16.143Z,165.50
2023-01-02T05:03:44.091Z,181.50
2023-01-02T05:06:10.948Z,170.90
2023-01-02T05:08:38.031Z,144.27
2023-01-02T05:11:14.023Z,158.10
2023-01-02T05:13:40.403Z,137.40
2023-01-02T05:16:07.448Z,164.13
2023-01-02T05:18:33.931Z,172.05
2023-01-02T05:21:32.619Z,170.52
2023-01-02T05:24:01.854Z,118.32
2023-01-02T05:26:30.655Z,133.98
2023-01-02T05:28:57.003Z,112.57
2023-01-02T05:31:23.368Z,102.22
2023-01-02T05:33:58.308Z,136.60
2023-01-02T05:36:25.656Z,113.57
2023-01-02T05:38:52.608Z,131.38
2023-01-02T05:41:20.349Z,104.15
2023-01-02T05:43:46.688Z,111.18
2023-01-02T05:46:20.291Z,112.03
2023-01-02T05:48:47.366Z,127.03
2023-01-02T05:51:16.292Z,126.15
2023-01-02T05:53:43.366Z,123.03
2023-01-02T05:56:12.561Z,98.18
2023-01-02T05:58:40.661Z,98.43
2023-01-02T06:01:11.979Z,94.78
2023-01-02T06:03:39.070Z,94.18
2023-01-02T06:06:10.347Z,110.93
2023-01-02T06:08:38.001Z,196.75
2023-01-02T06:11:05.375Z,140.63
2023-01-02T06:13:33.229Z,157.77
2023-01-02T06:16:01.466Z,165.77
2023-01-02T06:18:30.295Z,170.98
2023-01-02T06:21:05.183Z,189.60
2023-01-02T06:23:31.624Z,192.77
2023-01-02T06:26:10.219Z,197.60
2023-01-02T06:28:37.211Z,201.65
2023-01-02T06:31:06.115Z,237.63
2023-01-02T06:33:33.102Z,248.60
2023-01-02T06:36:13.581Z,204.52
2023-01-02T06:38:40.203Z,205.43
2023-01-02T06:41:08.067Z,215.90
2023-01-02T06:43:36.234Z,257.38
2023-01-02T06:46:04.755Z,234.95
2023-01-02T06:48:32.434Z,240.68
2023-01-02T06:51:01.697Z,327.23
2023-01-02T06:53:28.586Z,243.32
2023-01-02T06:55:58.842Z,239.13
2023-01-02T06:58:28.676Z,231.15
2023-01-02T07:00:55.077Z,222.93
2023-01-02T07:03:21.452Z,247.50
2023-01-02T07:05:50.349Z,213.77
2023-01-02T07:08:16.693Z,237.10
2023-01-02T07:10:45.584Z,261.30
2023-01-02T07:13:15.761Z,209.50
2023-01-02T07:15:42.133Z,289.65
2023-01-02T07:18:08.566Z,284.38
2023-01-02T07:20:34.976Z,297.27
2023-01-02T07:23:01.448Z,335.75
2023-01-02T07:25:27.819Z,317.70
2023-01-02T07:27:54.213Z,334.30
2023-01-02T07:30:20.642Z,399.52
2023-01-02T07:32:47.036Z,409.42
2023-01-02T07:35:16.621Z,443.15
2023-01-02T07:37:49.013Z,431.80
2023-01-02T07:40:15.407Z,418.58
2023-01-02T07:42:44.525Z,457.35
2023-01-02T07:45:11.221Z,501.30
2023-01-02T07:47:37.715Z,545.42
2023-01-02T07:50:04.393Z,590.45
2023-01-02T07:52:30.834Z,636.67
2023-01-02T07:54:59.557Z,610.78
2023-01-02T07:57:25.925Z,840.83
2023-01-02T07:59:52.303Z,674.85
2023-01-02T08:02:18.772Z,600.05
2023-01-02T08:04:45.217Z,660.65
2023-01-02T08:07:11.663Z,640.45
2023-01-02T08:09:38.218Z,649.83
2023-01-02T08:12:10.226Z,627.08
2023-01-02T08:14:37.331Z,683.13
2023-01-02T08:17:03.866Z,666.40
2023-01-02T08:19:30.382Z,675.85
2023-01-02T08:21:56.863Z,656.35
2023-01-02T08:24:25.787Z,626.95
2023-01-02T08:26:52.340Z,549.65
2023-01-02T08:29:18.795Z,428.52
2023-01-02T08:31:45.304Z,473.70
2023-01-02T08:34:15.231Z,300.48
2023-01-02T08:36:42.185Z,233.13
2023-01-02T08:39:08.623Z,233.43
2023-01-02T08:41:40.924Z,244.52
2023-01-02T08:44:07.829Z,232.98
2023-01-02T08:46:40.319Z,211.35
2023-01-02T08:49:09.347Z,306.75
2023-01-02T08:51:35.702Z,329.75
2023-01-02T08:54:02.027Z,312.63
2023-01-02T08:56:31.221Z,367.52
2023-01-02T08:59:03.076Z,319.77
2023-01-02T09:02:25.671Z,313.23
2023-01-02T09:04:52.253Z,256.25
2023-01-02T09:07:18.697Z,326.77
2023-01-02T09:09:45.142Z,386.98
2023-01-02T09:12:11.845Z,393.25
2023-01-02T09:14:38.718Z,335.73
2023-01-02T09:17:05.251Z,359.27
2023-01-02T09:19:31.719Z,366.83
2023-01-02T09:22:10.531Z,325.25
2023-01-02T09:24:37.006Z,283.90
2023-01-02T09:27:07.750Z,290.85
2023-01-02T09:29:34.257Z,281.52
2023-01-02T09:32:04.085Z,244.73
2023-01-02T09:34:30.743Z,231.00
2023-01-02T09:36:58.864Z,204.02
2023-01-02T09:39:31.911Z,186.63
2023-01-02T09:42:00.720Z,156.50
2023-01-02T09:44:33.326Z,187.50
2023-01-02T09:47:13.372Z,173.48
2023-01-02T09:49:54.684Z,159.90
2023-01-02T09:52:38.480Z,187.88
2023-01-02T09:55:15.799Z,168.05
2023-01-02T09:57:57.359Z,195.85
2023-01-02T10:00:26.984Z,193.05
2023-01-02T10:03:20.322Z,223.20
2023-01-02T10:06:06.002Z,216.88
2023-01-02T10:08:57.339Z,244.55
2023-01-02T10:11:23.638Z,183.43
2023-01-02T10:14:20.863Z,224.77
2023-01-02T10:16:52.286Z,175.18
2023-01-02T10:19:25.576Z,191.10
2023-01-02T10:21:58.477Z,196.27
2023-01-02T10:24:40.292Z,160.43
2023-01-02T10:27:13.022Z,125.82
2023-01-02T10:29:45.694Z,155.43
2023-01-02T10:32:18.119Z,141.50
2023-01-02T10:35:13.706Z,150.57
2023-01-02T10:37:40.148Z,117.10
2023-01-02T10:40:06.859Z,159.30
2023-01-02T10:53:51.270Z,100.60
2023-01-02T10:56:19.749Z,112.18
2023-01-02T10:58:51.136Z,132.75
2023-01-02T11:01:21.831Z,137.70
2023-01-02T11:04:10.432Z,145.57
2023-01-02T11:06:50.202Z,136.35
2023-01-02T11:09:23.239Z,146.80
2023-01-02T11:11:53.165Z,179.65
2023-01-02T11:14:38.463Z,203.48
2023-01-02T11:17:16.150Z,194.43
2023-01-02T11:19:50.454Z,171.10
2023-01-02T11:25:00.757Z,100.43
2023-01-02T11:27:39.795Z,143.77
2023-01-02T11:30:08.933Z,230.32
2023-01-02T11:32:41.056Z,311.42
2023-01-02T11:35:33.905Z,319.98
2023-01-02T11:38:02.399Z,257.40
2023-01-02T11:40:31.135Z,320.98
2023-01-02T11:43:24.350Z,348.45
2023-01-02T11:45:52.774Z,288.02
2023-01-02T11:48:22.629Z,322.77
2023-01-02T11:50:50.768Z,336.85
2023-01-02T11:53:27.260Z,361.42
2023-01-02T11:56:06.131Z,298.02
2023-01-02T11:58:54.275Z,278.38
2023-01-02T12:01:42.803Z,217.30
2023-01-02T12:04:10.071Z,186.82
2023-01-02T12:07:02.498Z,204.05
2023-01-02T12:09:58.153Z,153.45
2023-01-02T12:12:45.915Z,127.40
2023-01-02T12:15:35.530Z,126.18
2023-01-02T12:18:11.825Z,126.57
2023-01-02T12:20:55.356Z,138.82
2023-01-02T12:23:33.892Z,139.95
2023-01-02T12:26:09.395Z,135.40
2023-01-02T12:28:46.758Z,133.02
2023-01-02T12:31:29.367Z,118.15
2023-01-02T12:37:56.804Z,85.53
2023-01-02T12:40:36.495Z,90.88
2023-01-02T12:43:21.264Z,104.45
2023-01-02T12:46:06.794Z,93.85
2023-01-02T12:48:36.086Z,86.30
2023-01-02T12:51:12.132Z,82.70
2023-01-02T12:54:18.897Z,78.95
2023-01-02T12:57:25.771Z,70.43
2023-01-02T13:00:08.038Z,70.03
2023-01-02T13:02:49.955Z,82.88
2023-01-02T13:05:25.145Z,82.43
2023-01-02T13:08:06.909Z,107.38
2023-01-02T13:10:34.963Z,93.03
2023-01-02T13:13:02.200Z,116.82
2023-01-02T13:15:58.110Z,124.50
2023-01-02T13:18:37.593Z,102.13
2023-01-02T13:21:32.677Z,104.32
2023-01-02T13:24:00.303Z,118.97
2023-01-02T13:26:32.738Z,156.73
2023-01-02T13:29:18.723Z,149.43
2023-01-02T13:31:52.722Z,133.88
2023-01-02T13:34:25.192Z,133.18
2023-01-02T13:37:03.293Z,142.15
2023-01-02T13:39:39.055Z,128.73
2023-01-02T13:42:26.310Z,145.13
2023-01-02T13:45:01.554Z,122.95
2023-01-02T13:47:51.279Z,131.88
2023-01-02T13:50:38.815Z,120.70
2023-01-02T13:53:11.320Z,109.50
2023-01-02T13:55:40.867Z,136.85
2023-01-02T13:58:15.775Z,156.73
2023-01-02T14:00:51.594Z,162.73
2023-01-02T14:03:23.976Z,159.57
2023-01-02T14:06:04.196Z,169.13
2023-01-02T14:08:40.039Z,170.98
2023-01-02T14:11:09.622Z,179.35
2023-01-02T14:13:44.187Z,168.23
2023-01-02T14:16:25.246Z,178.30
2023-01-02T14:19:05.751Z,156.30
2023-01-02T14:21:40.452Z,158.93
2023-01-02T14:24:16.743Z,183.10
2023-01-02T14:26:55.535Z,158.55
2023-01-02T14:29:25.389Z,126.03
2023-01-02T14:32:03.920Z,160.95
2023-01-02T14:34:33.238Z,133.88
2023-01-02T14:37:02.017Z,139.20
2023-01-02T14:39:33.705Z,135.02
2023-01-02T14:42:31.976Z,118.13
2023-01-02T14:45:03.240Z,90.05
2023-01-02T14:48:01.413Z,99.05
2023-01-02T14:50:34.469Z,92.00
2023-01-02T14:53:15.751Z,99.47
2023-01-02T14:55:44.277Z,94.45
2023-01-02T14:58:18.290Z,100.35
2023-01-02T15:00:47.125Z,95.68
2023-01-02T15:03:43.403Z,103.15
2023-01-02T15:06:28.084Z,85.03
2023-01-02T15:11:44.974Z,63.80
2023-01-02T15:14:23.821Z,71.35
2023-01-02T15:16:56.033Z,82.25
2023-01-02T15:19:27.738Z,99.05
2023-01-02T15:21:54.986Z,91.05
2023-01-02T15:24:27.285Z,91.57
2023-01-02T15:27:22.021Z,90.25
2023-01-02T15:29:53.079Z,77.20
2023-01-02T15:32:38.915Z,78.22
2023-01-02T15:35:37.734Z,75.47
2023-01-02T15:38:05.257Z,79.22
2023-01-02T15:40:35.201Z,79.28
2023-01-02T15:43:23.591Z,77.20
2023-01-02T15:45:52.105Z,73.63
2023-01-02T15:48:22.392Z,84.45
2023-01-02T15:50:52.032Z,83.43
2023-01-02T15:53:30.192Z,79.55
2023-01-02T15:55:58.007Z,75.50
2023-01-02T15:58:30.478Z,81.97
2023-01-02T16:01:10.254Z,85.10
2023-01-02T16:04:00.569Z,72.93
2023-01-02T16:06:30.444Z,71.45
2023-01-02T16:09:02.044Z,70.45
2023-01-02T16:11:29.750Z,72.55
2023-01-02T16:14:19.359Z,67.70
2023-01-02T16:16:50.518Z,60.60
2023-01-02T16:19:23.685Z,51.85
2023-01-02T16:21:53.828Z,39.88
2023-01-02T16:24:23.482Z,42.17
2023-01-02T16:26:50.404Z,29.52
2023-01-02T16:29:20.006Z,29.58
2023-01-02T16:32:01.270Z,32.20
2023-01-02T16:34:35.865Z,33.05
2023-01-02T16:37:33.055Z,26.35
2023-01-02T16:40:59.674Z,26.95
2023-01-02T16:43:13.687Z,30.23
2023-01-02T16:45:47.436Z,41.58
2023-01-02T16:48:17.134Z,40.72
2023-01-02T16:50:45.817Z,49.15
2023-01-02T16:53:19.720Z,51.67
2023-01-02T16:55:46.539Z,50.00
2023-01-02T16:58:13.210Z,55.72
2023-01-02T17:00:43.619Z,55.00
2023-01-02T17:03:18.940Z,56.90
2023-01-02T17:06:01.780Z,53.85
2023-01-02T17:08:31.690Z,55.20
2023-01-02T17:10:59.919Z,49.78
2023-01-02T17:13:27.967Z,50.90
2023-01-02T17:15:54.472Z,55.78
2023-01-02T17:18:21.602Z,60.08
2023-01-02T17:20:48.135Z,54.67
2023-01-02T17:23:15.081Z,58.88
2023-01-02T17:25:43.681Z,54.42
2023-01-02T17:28:10.885Z,56.60
2023-01-02T17:30:40.751Z,55.15
2023-01-02T17:33:07.520Z,49.83
2023-01-02T17:35:35.816Z,51.25
2023-01-02T17:38:02.442Z,57.67
2023-01-02T17:40:31.813Z,61.88
2023-01-02T17:43:00.515Z,53.88
2023-01-02T17:45:27.027Z,52.28
2023-01-02T17:48:12.316Z,55.83
2023-01-02T17:50:40.387Z,54.33
2023-01-02T17:53:08.071Z,54.13
2023-01-02T17:55:34.653Z,54.88
2023-01-02T17:58:01.282Z,56.33
2023-01-02T18:00:28.498Z,50.47
2023-01-02T18:02:55.057Z,57.80
2023-01-02T18:05:22.266Z,51.47
2023-01-02T18:07:48.769Z,54.50
2023-01-02T18:10:19.951Z,50.58
2023-01-02T18:12:47.559Z,52.72
2023-01-02T18:15:15.550Z,53.92
2023-01-02T18:17:42.806Z,50.33
2023-01-02T18:20:12.100Z,52.97
2023-01-02T18:22:44.012Z,52.65
2023-01-02T18:25:29.743Z,53.83
2023-01-02T18:27:59.993Z,47.33
2023-01-02T18:30:27.417Z,49.65
2023-01-02T18:33:21.202Z,46.42
2023-01-02T18:35:57.822Z,47.97
2023-01-02T18:38:45.545Z,48.60
2023-01-02T18:41:27.132Z,47.60
2023-01-02T18:44:01.417Z,52.25
2023-01-02T18:49:27.051Z,44.20
2023-01-02T18:52:11.943Z,51.03
2023-01-02T18:54:44.759Z,55.88
2023-01-02T18:57:29.127Z,55.30
2023-01-02T19:00:02.989Z,55.03
2023-01-02T19:02:48.126Z,53.60
2023-01-02T19:05:19.997Z,53.17
2023-01-02T19:07:47.013Z,59.78
2023-01-02T19:10:36.894Z,53.60
2023-01-02T19:13:08.052Z,53.15
2023-01-02T19:19:14.819Z,52.22
2023-01-02T19:21:41.629Z,55.80
2023-01-02T19:24:08.021Z,54.65
2023-01-02T19:26:44.973Z,51.55
2023-01-02T19:29:11.378Z,56.60
2023-01-02T19:31:46.906Z,50.65
2023-01-02T19:34:36.137Z,57.33
2023-01-02T19:37:11.811Z,52.60
2023-01-02T19:39:57.552Z,54.97
2023-01-02T19:42:28.109Z,54.42
2023-01-02T19:44:58.172Z,55.13
2023-01-02T19:47:27.269Z,51.95
2023-01-02T19:49:54.325Z,54.40
2023-01-02T19:52:21.958Z,53.40
2023-01-02T19:54:49.152Z,52.05
2023-01-02T19:57:19.552Z,52.05
2023-01-02T19:59:47.191Z,50.42
2023-01-02T20:03:03.070Z,51.05
2023-01-02T20:05:29.650Z,42.45
2023-01-02T20:07:57.978Z,43.88
2023-01-02T20:10:24.749Z,36.58
2023-01-02T20:12:51.545Z,40.47
2023-01-02T20:15:24.234Z,36.75
2023-01-02T20:17:52.387Z,39.97
2023-01-02T20:20:21.321Z,37.88
2023-01-02T20:22:51.101Z,31.25
2023-01-02T20:25:21.061Z,31.77
2023-01-02T20:27:47.857Z,31.63
2023-01-02T20:30:20.210Z,30.88
2023-01-02T20:32:54.060Z,30.15
2023-01-02T20:35:20.569Z,31.88
2023-01-02T20:37:47.830Z,29.40
2023-01-02T20:40:14.707Z,32.80
2023-01-02T20:42:41.486Z,31.13
2023-01-02T20:45:08.594Z,31.45
2023-01-02T20:47:36.273Z,30.27
2023-01-02T20:50:03.288Z,29.65
2023-01-02T20:52:29.704Z,28.60
2023-01-02T20:54:56.193Z,29.35
2023-01-02T20:57:22.700Z,28.40
2023-01-02T20:59:49.141Z,28.13
2023-01-02T21:02:15.667Z,26.45
2023-01-02T21:04:42.080Z,30.08
2023-01-02T21:07:09.735Z,32.88
2023-01-02T21:09:36.231Z,29.02
2023-01-02T21:12:02.650Z,27.15
2023-01-02T21:14:33.798Z,27.67
2023-01-02T21:17:03.655Z,28.80
2023-01-02T21:19:30.098Z,27.05
2023-01-02T21:21:56.518Z,29.33
2023-01-02T21:24:22.837Z,29.55
2023-01-02T21:26:49.382Z,30.02
2023-01-02T21:29:15.769Z,28.63
2023-01-02T21:31:42.175Z,29.10
2023-01-02T21:34:08.674Z,28.60
2023-01-02T21:36:38.121Z,27.50
2023-01-02T21:39:04.696Z,28.70
2023-01-02T21:41:49.795Z,27.67
2023-01-02T21:44:16.178Z,28.17
2023-01-02T21:46:42.609Z,27.67
2023-01-02T21:49:09.416Z,26.23
2023-01-02T21:51:36.911Z,26.63
2023-01-02T21:54:03.384Z,27.17
2023-01-02T21:56:30.570Z,28.02
2023-01-02T21:58:57.537Z,27.13
2023-01-02T22:01:24.237Z,28.67
2023-01-02T22:03:50.819Z,26.80
2023-01-02T22:06:18.147Z,25.92
2023-01-02T22:08:44.616Z,29.13
2023-01-02T22:11:29.673Z,25.52
2023-01-02T22:13:56.182Z,26.35
2023-01-02T22:16:22.764Z,27.73
2023-01-02T22:18:50.567Z,26.90
2023-01-02T22:21:16.921Z,28.10
2023-01-02T22:23:43.325Z,26.65
2023-01-02T22:26:09.739Z,27.63
2023-01-02T22:28:36.262Z,29.83
2023-01-02T22:31:02.724Z,28.25
2023-01-02T22:33:29.233Z,28.67
2023-01-02T22:35:55.669Z,28.33
2023-01-02T22:38:22.029Z,29.23
2023-01-02T22:40:48.409Z,29.17
2023-01-02T22:43:20.847Z,29.95
2023-01-02T22:45:53.235Z,30.73
2023-01-02T22:48:21.295Z,30.83
2023-01-02T22:50:49.485Z,34.72
2023-01-02T22:53:28.695Z,34.90
2023-01-02T22:55:55.387Z,35.40
2023-01-02T22:58:22.551Z,33.55
2023-01-02T23:00:59.319Z,34.45
2023-01-02T23:03:28.303Z,33.90
2023-01-02T23:05:54.787Z,31.70
2023-01-02T23:08:21.252Z,34.38
2023-01-02T23:10:47.589Z,33.08
2023-01-02T23:13:14.044Z,34.55
2023-01-02T23:16:00.496Z,37.50
2023-01-02T23:18:46.623Z,36.13
2023-01-02T23:21:15.547Z,34.50
2023-01-02T23:23:41.870Z,35.20
2023-01-02T23:26:08.335Z,33.85
2023-01-02T23:31:21.477Z,34.63
2023-01-02T23:33:47.907Z,40.55
2023-01-02T23:36:14.369Z,34.05
2023-01-02T23:38:40.730Z,37.58
2023-01-02T23:41:07.101Z,36.28
2023-01-02T23:43:33.398Z,37.25
2023-01-02T23:45:59.901Z,39.20
2023-01-02T23:48:26.306Z,38.00
2023-01-02T23:50:57.594Z,37.08
2023-01-02T23:53:24.037Z,39.95
2023-01-02T23:55:50.449Z,34.45
2023-01-02T23:58:16.864Z,36.05
